Latest Weather Observations for Cooma Airport

IDN60901

Issued at 9:31 am EDT Friday 27 March 2015 (issued every 10 minutes, with the page automatically refreshed every 10 minutes)

About weather observations | Map of Canberra area stations | Latest observations for Canberra area | Other Formats
Station Details ID: 070217 Name: COOMA AIRPORT AWS Lat: -36.29 Lon: 148.97 Height: 930.0 m
Data from the previous 72 hours. | See also: Recent months for locations in Aust Capital Territory
Date/Time
EDT
Tmp

°C
App
Tmp
°C
Dew
Point
°C
Rel
Hum
%
Delta-T

°C
Wind Press
QNH
hPa
Press
MSL
hPa
Rain
since
9 am
mm
Dir
 
Spd
km/h
Gust
km/h
Spd
kts
Gust
kts
27/09:30am 11.0 5.3 0.7 49 4.5 W 20 32 11 17 1019.6 1016.8 0.0
27/09:00am 10.5 5.3 2.4 57 3.7 W 19 26 10 14 1019.5 1016.7 -
27/08:30am 9.3 4.4 2.2 61 3.2 WNW 17 22 9 12 1019.5 1016.7 -
27/08:00am 7.9 3.3 1.3 63 2.8 WNW 15 20 8 11 1019.1 1016.2 -
27/07:30am 6.8 2.9 0.9 66 2.5 WNW 11 17 6 9 1019.0 1016.1 -
27/07:00am 6.7 2.4 0.8 66 2.5 S 13 20 7 11 1018.5 1015.7 -
27/06:30am 7.4 2.3 1.0 64 2.7 W 17 26 9 14 1018.3 1015.5 -
27/05:30am 6.3 3.1 1.0 69 2.2 NW 7 13 4 7 1017.8 1014.9 -
27/05:00am 7.2 1.8 1.1 65 2.6 WNW 19 32 10 17 1017.8 1014.9 -
27/04:30am 6.6 2.6 0.7 66 2.5 WNW 11 19 6 10 1017.9 1015.0 -
27/04:00am 6.6 2.2 0.3 64 2.6 W 13 20 7 11 1018.1 1015.2 -
27/03:30am 7.1 1.9 0.3 62 2.8 WNW 17 32 9 17 1018.2 1015.3 -
27/03:00am 6.5 2.8 -0.2 62 2.7 WNW 9 22 5 12 1018.3 1015.5 -
27/02:30am 6.7 2.2 -0.5 60 2.9 NNW 13 20 7 11 1018.6 1015.8 -
27/01:30am 7.3 3.8 -1.4 54 3.5 ENE 7 17 4 9 1019.2 1016.4 -
27/01:00am 7.4 2.7 -1.5 53 3.6 NW 13 24 7 13 1019.2 1016.4 -
27/12:30am 7.7 1.3 -1.5 52 3.7 NW 22 33 12 18 1019.4 1016.6 -
 
Date/Time
EDT
Tmp

°C
App
Tmp
°C
Dew
Point
°C
Rel
Hum
%
Delta-T

°C
Wind Press
QNH
hPa
Press
MSL
hPa
Rain
since
9 am
mm
Dir
 
Spd
km/h
Gust
km/h
Spd
kts
Gust
kts
26/11:30pm 6.9 1.8 -2.3 52 3.6 WNW 15 20 8 11 1019.6 1016.8 -
26/11:00pm 7.2 1.3 -2.0 52 3.6 WNW 19 28 10 15 1019.8 1017.0 -
26/10:00pm 7.6 2.4 -2.7 48 4.0 NW 15 30 8 16 1019.9 1017.1 -
26/09:30pm 7.6 3.5 -3.0 47 4.1 WNW 9 15 5 8 1020.4 1017.6 -
26/09:00pm 8.5 2.9 -3.0 44 4.5 NW 17 32 9 17 1019.9 1017.1 -
26/08:30pm 8.1 2.9 -2.8 46 4.3 W 15 22 8 12 1020.0 1017.2 -
26/08:00pm 8.3 3.8 -3.5 43 4.5 W 11 17 6 9 1019.6 1016.8 -
26/07:30pm 8.6 3.3 -3.6 42 4.7 W 15 28 8 15 1019.2 1016.4 -
26/07:00pm 9.8 4.1 -3.5 39 5.2 WNW 17 32 9 17 1018.8 1016.0 0.0
26/06:30pm 11.2 5.1 -3.7 35 5.9 WNW 19 30 10 16 1018.4 1015.6 0.0
26/05:30pm 12.9 6.4 -2.6 34 6.4 W 22 39 12 21 1018.3 1015.5 0.0
26/05:00pm 13.5 6.7 -2.0 34 6.5 WNW 24 39 13 21 1018.0 1015.1 0.0
26/04:30pm 13.8 6.2 -1.8 34 6.6 WNW 28 41 15 22 1017.8 1014.9 0.0
26/04:00pm 14.3 6.8 -1.3 34 6.7 W 28 44 15 24 1017.5 1014.7 0.0
26/03:30pm 14.3 6.6 -0.2 37 6.4 NW 30 48 16 26 1017.3 1014.5 0.0
26/03:03pm 14.8 7.6 0.6 38 6.4 WNW 28 48 15 26 1017.2 1014.3 0.0
26/03:00pm 15.6 9.2 1.0 37 6.7 WNW 24 41 13 22 1017.2 1014.3 0.0
26/02:35pm 14.2 6.8 1.8 43 5.7 WNW 30 48 16 26 1017.2 1014.3 0.0
26/02:30pm 14.7 6.9 1.9 42 5.9 NW 32 44 17 24 1017.2 1014.3 0.0
26/02:00pm 14.9 6.5 1.4 40 6.2 WNW 35 54 19 29 1017.3 1014.5 0.0
26/01:30pm 15.7 8.0 2.2 40 6.3 NW 32 52 17 28 1017.3 1014.5 0.0
26/01:24pm 14.9 8.0 2.8 44 5.7 WNW 28 52 15 28 1017.2 1014.3 0.0
26/01:00pm 14.9 7.8 1.1 39 6.3 W 28 43 15 23 1017.3 1014.5 0.0
26/12:30pm 15.6 7.7 1.3 38 6.6 WNW 32 56 17 30 1017.4 1014.6 0.0
26/12:28pm 16.0 8.6 1.7 38 6.7 WNW 30 48 16 26 1017.4 1014.6 0.0
26/12:00pm 15.3 7.8 1.4 39 6.4 WNW 30 41 16 22 1017.3 1014.5 0.0
26/11:30am 14.9 9.4 1.8 41 6.1 NW 20 37 11 20 1017.3 1014.5 0.0
26/11:00am 14.5 7.2 2.4 44 5.6 W 30 43 16 23 1017.4 1014.6 0.0
26/10:55am 14.2 6.4 1.8 43 5.7 W 32 44 17 24 1017.3 1014.5 0.0
26/10:43am 13.9 8.0 1.9 44 5.5 W 22 46 12 25 1017.3 1014.5 0.0
26/10:30am 13.6 9.9 2.2 46 5.3 W 11 20 6 11 1017.4 1014.6 0.0
26/10:00am 12.4 8.1 1.1 46 5.0 WSW 13 20 7 11 1017.6 1014.8 0.0
26/09:30am 11.7 7.1 1.4 49 4.6 WSW 15 17 8 9 1017.3 1014.5 0.0
26/09:00am 10.2 6.5 2.3 58 3.5 NW 11 17 6 9 1017.3 1014.5 0.2
26/08:30am 8.4 4.6 1.6 62 3.0 WNW 11 19 6 10 1017.3 1014.5 0.2
26/08:00am 8.0 3.8 1.4 63 2.8 NW 13 17 7 9 1017.1 1014.2 0.2
26/07:30am 7.5 2.9 1.8 67 2.5 WNW 15 20 8 11 1016.9 1014.0 0.2
26/07:00am 7.9 3.0 2.0 66 2.6 NW 17 24 9 13 1016.7 1013.8 0.2
26/06:30am 8.1 3.7 2.6 68 2.4 NW 15 24 8 13 1016.3 1013.5 0.2
26/06:00am 3.5 -0.3 1.5 87 0.8 N 11 19 6 10 1016.3 1013.5 0.2
26/05:30am 5.2 1.9 2.6 83 1.1 N 9 13 5 7 1016.4 1013.6 0.2
26/05:00am 4.9 2.0 2.6 85 1.0 N 7 9 4 5 1016.2 1013.3 0.2
26/04:30am 7.2 3.8 4.0 80 1.5 N 11 13 6 7 1016.4 1013.6 0.2
26/04:00am 5.4 2.2 2.9 84 1.1 N 9 11 5 6 1016.4 1013.6 0.2
26/03:30am 6.3 4.0 4.8 90 0.7 NNW 6 9 3 5 1016.5 1013.7 0.2
26/03:00am 5.9 3.7 5.2 95 0.3 E 6 9 3 5 1016.8 1013.9 0.2
26/02:30am 5.6 2.0 5.0 96 0.3 NNE 13 19 7 10 1016.9 1014.0 0.2
26/02:00am 5.4 2.6 5.3 99 0.0 NE 9 11 5 6 1017.1 1014.2 0.2
26/01:30am 7.5 4.8 7.4 99 0.0 ENE 11 15 6 8 1017.0 1014.1 0.2
26/01:00am 7.8 5.9 7.7 99 0.0 NNE 7 9 4 5 1017.3 1014.5 0.2
26/12:30am 7.5 5.1 7.2 98 0.1 N 9 11 5 6 1017.1 1014.2 0.2
26/12:00am 7.7 5.0 7.3 97 0.2 NNE 11 15 6 8 1017.4 1014.6 0.2
 
Date/Time
EDT
Tmp

°C
App
Tmp
°C
Dew
Point
°C
Rel
Hum
%
Delta-T

°C
Wind Press
QNH
hPa
Press
MSL
hPa
Rain
since
9 am
mm
Dir
 
Spd
km/h
Gust
km/h
Spd
kts
Gust
kts
25/11:30pm 8.7 6.7 8.6 99 0.1 NNE 9 13 5 7 1017.5 1014.7 0.2
25/11:00pm 8.3 6.2 8.2 99 0.1 NNW 9 11 5 6 1017.9 1015.0 0.2
25/10:30pm 8.1 5.6 8.0 99 0.1 NNE 11 15 6 8 1017.6 1014.8 0.2
25/10:00pm 8.7 6.3 8.6 99 0.1 NNE 11 13 6 7 1017.8 1014.9 0.2
25/09:30pm 8.1 5.4 7.3 95 0.4 NNE 11 13 6 7 1017.6 1014.8 0.2
25/09:00pm 9.2 6.7 8.1 93 0.6 NNE 11 15 6 8 1017.6 1014.8 0.2
25/08:30pm 10.2 7.8 8.8 91 0.7 NNE 11 13 6 7 1017.3 1014.5 0.2
25/08:00pm 10.9 9.0 9.2 89 0.9 N 9 13 5 7 1017.1 1014.2 0.2
25/07:30pm 11.7 7.4 9.3 85 1.3 ENE 22 30 12 16 1016.5 1013.7 0.2
25/07:00pm 12.9 8.9 9.2 78 2.0 ENE 20 24 11 13 1016.5 1013.7 0.2
25/06:30pm 14.3 9.2 9.3 72 2.7 ENE 26 32 14 17 1016.0 1013.1 0.2
25/06:00pm 15.2 9.7 9.3 68 3.2 ENE 28 35 15 19 1015.8 1012.9 0.2
25/05:30pm 16.6 10.6 8.8 60 4.2 ENE 30 37 16 20 1015.8 1012.9 0.2
25/05:00pm 18.9 13.4 6.1 43 6.6 NNE 24 32 13 17 1015.6 1012.7 0.2
25/04:30pm 19.0 14.2 7.4 47 6.2 NE 22 39 12 21 1015.7 1012.8 0.2
25/04:00pm 18.8 14.4 6.6 45 6.4 NE 19 28 10 15 1015.8 1012.9 0.2
25/03:30pm 18.8 14.7 6.0 43 6.6 NNE 17 26 9 14 1016.2 1013.3 0.2
25/03:00pm 18.6 15.7 6.4 45 6.4 N 11 22 6 12 1016.4 1013.6 0.2
25/02:30pm 17.9 14.4 5.5 44 6.3 ENE 13 20 7 11 1017.2 1014.3 0.2
25/02:00pm 17.1 13.0 6.3 49 5.6 NNE 17 24 9 13 1017.5 1014.7 0.2
25/01:30pm 17.1 14.5 7.7 54 5.0 NNE 11 20 6 11 1017.6 1014.8 0.2
25/01:00pm 15.6 12.7 4.6 48 5.4 NNW 9 19 5 10 1018.2 1015.3 0.2
25/12:30pm 14.9 12.3 6.2 56 4.4 NE 9 15 5 8 1019.0 1016.1 0.2
25/12:00pm 13.1 10.8 5.0 58 3.9 SSE 6 11 3 6 1019.1 1016.2 0.0
25/11:30am 13.3 10.5 6.9 65 3.3 SW 11 17 6 9 1019.2 1016.4 0.0
25/11:00am 12.5 9.9 6.1 65 3.2 S 9 13 5 7 1019.2 1016.4 0.0
25/10:30am 12.0 10.0 6.1 67 2.9 SSE 6 11 3 6 1019.0 1016.1 0.0
25/10:00am 11.3 9.0 5.6 68 2.8 ESE 7 11 4 6 1018.8 1016.0 0.0
25/09:30am 11.4 10.5 7.7 78 1.9 SW 2 7 1 4 1019.0 1016.1 0.0
25/09:00am 10.0 7.9 6.7 80 1.6 S 7 11 4 6 1019.0 1016.1 1.4
25/08:30am 9.7 7.4 7.6 87 1.1 SSW 9 11 5 6 1018.8 1016.0 1.4
25/08:00am 9.0 6.9 8.1 94 0.5 SW 9 11 5 6 1019.1 1016.2 1.4
25/07:30am 8.6 8.3 8.5 99 0.1 CALM 0 7 0 4 1018.6 1015.8 1.4
25/07:00am 8.4 6.7 8.3 99 0.1 SSW 7 9 4 5 1017.8 1014.9 1.4
25/06:30am 8.2 6.1 8.1 99 0.1 W 9 9 5 5 1017.9 1015.0 1.4
25/06:00am 7.8 5.4 7.2 96 0.3 WSW 9 11 5 6 1017.5 1014.7 1.4
25/05:30am 8.4 6.3 8.1 98 0.2 SW 9 11 5 6 1017.3 1014.5 1.4
25/05:00am 8.7 7.1 8.6 99 0.1 SW 7 11 4 6 1017.0 1014.1 1.4
25/04:55am 8.7 7.1 8.6 99 0.1 WSW 7 9 4 5 1017.0 1014.1 1.4
25/04:30am 8.6 6.2 8.5 99 0.1 SW 11 13 6 7 1017.1 1014.2 1.4
25/04:17am 8.6 6.2 8.5 99 0.1 SW 11 17 6 9 1017.2 1014.3 1.4
25/04:00am 8.6 6.2 8.5 99 0.1 WSW 11 15 6 8 1017.5 1014.7 1.4
25/03:54am 8.7 6.3 8.6 99 0.1 WSW 11 15 6 8 1017.5 1014.7 1.4
25/03:49am 8.7 6.6 8.4 98 0.2 WSW 9 13 5 7 1017.4 1014.6 1.4
25/03:35am 8.8 6.7 8.4 97 0.2 SW 9 13 5 7 1017.3 1014.5 1.4
25/03:33am 8.8 6.7 8.2 96 0.3 WSW 9 13 5 7 1017.3 1014.5 1.4
25/03:30am 8.9 7.4 8.3 96 0.3 WSW 6 11 3 6 1017.3 1014.5 1.4
25/03:00am 8.8 5.9 8.0 95 0.4 SW 13 15 7 8 1017.3 1014.5 1.4
25/02:50am 8.7 5.4 7.9 95 0.4 SW 15 19 8 10 1017.3 1014.5 1.4
25/02:30am 8.7 5.8 8.1 96 0.3 SSW 13 15 7 8 1017.4 1014.6 1.4
25/02:13am 8.4 5.4 7.6 95 0.4 SSW 13 15 7 8 1017.8 1014.9 1.4
25/02:00am 8.4 5.3 7.3 93 0.5 SW 13 19 7 10 1017.6 1014.8 1.4
25/01:50am 8.8 5.0 7.7 93 0.6 SW 17 19 9 10 1017.6 1014.8 1.4
25/01:30am 8.9 5.5 7.5 91 0.7 SW 15 20 8 11 1017.6 1014.8 1.4
25/01:00am 8.9 5.1 7.5 91 0.7 SW 17 22 9 12 1017.8 1014.9 1.4
25/12:30am 8.9 4.2 7.8 93 0.6 SW 22 26 12 14 1017.8 1014.9 1.4
25/12:00am 8.8 4.5 7.7 93 0.6 SW 20 26 11 14 1017.6 1014.8 1.4
 
Date/Time
EDT
Tmp

°C
App
Tmp
°C
Dew
Point
°C
Rel
Hum
%
Delta-T

°C
Wind Press
QNH
hPa
Press
MSL
hPa
Rain
since
9 am
mm
Dir
 
Spd
km/h
Gust
km/h
Spd
kts
Gust
kts
24/11:37pm 8.8 4.5 7.7 93 0.6 SW 20 26 11 14 1017.8 1014.9 1.4
24/11:30pm 8.8 4.1 7.6 92 0.6 SW 22 28 12 15 1017.8 1014.9 1.4
24/11:29pm 8.8 4.1 7.6 92 0.6 SW 22 28 12 15 1017.8 1014.9 1.4
24/11:00pm 8.9 4.6 7.7 92 0.6 SSW 20 28 11 15 1017.9 1015.0 1.4
24/10:53pm 8.9 4.6 7.8 93 0.6 SSW 20 26 11 14 1017.9 1015.0 1.4
24/10:52pm 8.9 4.6 7.8 93 0.6 SSW 20 26 11 14 1017.9 1015.0 1.4
24/10:30pm 9.0 4.4 8.2 95 0.4 SW 22 30 12 16 1017.6 1014.8 1.4
24/10:00pm 9.1 3.8 8.5 96 0.3 SW 26 32 14 17 1017.3 1014.5 1.4
24/09:30pm 9.0 3.4 8.9 99 0.1 SW 28 33 15 18 1017.0 1014.1 1.4
24/09:00pm 9.3 4.5 9.0 98 0.2 SSW 24 32 13 17 1016.7 1013.8 1.4
24/08:30pm 9.4 4.2 8.8 96 0.3 SSW 26 35 14 19 1016.3 1013.5 1.4
24/08:00pm 9.7 5.8 9.6 99 0.1 SSW 20 28 11 15 1015.9 1013.0 1.4
24/07:30pm 9.9 5.2 9.4 97 0.3 SW 24 32 13 17 1015.2 1012.3 1.4
24/07:00pm 10.5 5.5 9.4 93 0.6 SSW 26 35 14 19 1014.7 1011.8 1.4
24/06:53pm 11.2 7.5 10.1 93 0.6 SSW 20 35 11 19 1014.4 1011.4 1.4
24/06:46pm 11.3 8.2 10.2 93 0.6 SSW 17 22 9 12 1014.2 1011.3 1.4
24/06:30pm 11.5 8.0 10.2 92 0.7 SW 19 26 10 14 1014.0 1011.1 1.4
24/06:00pm 12.4 8.8 10.5 88 1.0 SSW 20 26 11 14 1013.8 1010.9 1.4
24/05:30pm 12.8 8.5 10.7 87 1.1 S 24 30 13 16 1013.3 1010.3 1.4
24/05:00pm 13.2 8.5 10.7 85 1.4 SSW 26 33 14 18 1013.0 1010.1 1.4
24/04:30pm 13.6 9.8 11.1 85 1.4 SSW 22 30 12 16 1012.7 1009.8 1.4
24/04:00pm 14.3 11.5 12.7 90 0.9 S 19 24 10 13 1012.6 1009.7 1.4
24/03:30pm 12.8 8.4 11.7 93 0.6 S 26 35 14 19 1012.8 1009.9 1.4
24/03:00pm 13.7 9.9 12.4 92 0.7 S 24 32 13 17 1012.7 1009.8 1.4
24/02:30pm 14.4 11.6 12.6 89 1.0 S 19 24 10 13 1012.8 1009.9 1.4
24/02:00pm 14.0 12.7 13.8 99 0.1 SSW 13 19 7 10 1012.9 1010.0 1.4
24/01:30pm 13.1 11.2 12.9 99 0.1 SW 15 19 8 10 1013.4 1010.4 1.4
24/01:06pm 13.0 10.6 12.8 99 0.1 SW 17 20 9 11 1013.5 1010.6 1.4
24/01:00pm 13.1 10.8 13.1 100 0.0 SW 17 20 9 11 1013.5 1010.6 1.4
24/12:55pm 13.0 10.7 13.0 100 0.0 SW 17 20 9 11 1013.5 1010.6 1.4
24/12:30pm 12.9 10.1 12.7 99 0.1 SW 19 22 10 12 1014.0 1011.1 1.4
24/12:00pm 13.7 11.5 13.2 97 0.3 SW 17 24 9 13 1014.0 1011.1 1.4
24/11:30am 14.7 13.7 14.5 99 0.1 S 13 15 7 8 1013.7 1010.8 1.4
24/11:00am 14.0 12.7 13.8 99 0.1 SW 13 15 7 8 1014.6 1011.7 1.2
24/10:30am 13.7 13.5 13.5 99 0.1 WSW 7 9 4 5 1014.5 1011.6 1.2
24/10:28am 13.8 13.6 13.6 99 0.1 WSW 7 9 4 5 1014.5 1011.6 1.2
24/10:00am 13.7 13.2 13.7 100 0.0 SSW 9 13 5 7 1014.1 1011.2 1.0

Latest Capital City Observations: Canberra | Sydney | Melbourne | Brisbane | Adelaide | Perth | Hobart | Darwin

Other Formats:

Comma delimited format used in spreadsheet applications
http://www.bom.gov.au/fwo/IDN60903/IDN60903.94921.axf

JavaScript Object Notation format (JSON) in row-major order
http://www.bom.gov.au/fwo/IDN60903/IDN60903.94921.json